createdAt,value
2023-03-08T00:00:06.312Z,976.38
2023-03-08T00:00:16.827Z,976.38
2023-03-08T00:00:27.308Z,976.38
2023-03-08T00:00:37.812Z,976.38
2023-03-08T00:00:48.316Z,976.39
2023-03-08T00:00:59.319Z,976.39
2023-03-08T00:01:09.815Z,976.39
2023-03-08T00:01:20.321Z,976.39
2023-03-08T00:01:30.827Z,976.39
2023-03-08T00:01:41.326Z,976.39
2023-03-08T00:01:52.353Z,976.40
2023-03-08T00:02:02.844Z,976.40
2023-03-08T00:02:13.324Z,976.40
2023-03-08T00:02:23.827Z,976.41
2023-03-08T00:02:34.323Z,976.41
2023-03-08T00:02:45.332Z,976.40
2023-03-08T00:02:56.327Z,976.41
2023-03-08T00:03:07.325Z,976.41
2023-03-08T00:03:17.833Z,976.42
2023-03-08T00:03:28.391Z,976.43
2023-03-08T00:03:38.878Z,976.42
2023-03-08T00:03:49.355Z,976.43
2023-03-08T00:03:59.879Z,976.43
2023-03-08T00:04:10.418Z,976.43
2023-03-08T00:04:21.026Z,976.42
2023-03-08T00:04:31.846Z,976.42
2023-03-08T00:04:42.388Z,976.42
2023-03-08T00:04:53.336Z,976.42
2023-03-08T00:05:03.864Z,976.41
2023-03-08T00:05:14.827Z,976.42
2023-03-08T00:05:25.813Z,976.41
2023-03-08T00:05:36.338Z,976.41
2023-03-08T00:05:46.826Z,976.40
2023-03-08T00:05:57.824Z,976.40
2023-03-08T00:06:08.329Z,976.41
2023-03-08T00:06:18.827Z,976.40
2023-03-08T00:06:29.819Z,976.39
2023-03-08T00:06:40.816Z,976.39
2023-03-08T00:06:51.817Z,976.38
2023-03-08T00:07:02.820Z,976.37
2023-03-08T00:07:13.347Z,976.38
2023-03-08T00:07:23.825Z,976.37
2023-03-08T00:07:34.330Z,976.37
2023-03-08T00:07:45.312Z,976.37
2023-03-08T00:07:55.818Z,976.36
2023-03-08T00:08:06.848Z,976.36
2023-03-08T00:08:17.359Z,976.36
2023-03-08T00:08:28.329Z,976.36
2023-03-08T00:08:38.857Z,976.35
2023-03-08T00:08:49.390Z,976.35
2023-03-08T00:09:00.308Z,976.35
2023-03-08T00:09:10.812Z,976.35
2023-03-08T00:09:21.312Z,976.35
2023-03-08T00:09:31.811Z,976.35
2023-03-08T00:09:42.304Z,976.35
2023-03-08T00:09:53.318Z,976.35
2023-03-08T00:10:04.312Z,976.35
2023-03-08T00:10:14.803Z,976.36
2023-03-08T00:10:25.308Z,976.36
2023-03-08T00:10:36.316Z,976.36
2023-03-08T00:10:46.813Z,976.36
2023-03-08T00:10:57.311Z,976.37
2023-03-08T00:11:08.336Z,976.37
2023-03-08T00:11:18.818Z,976.37
2023-03-08T00:11:29.328Z,976.37
2023-03-08T00:11:39.817Z,976.37
2023-03-08T00:11:50.328Z,976.38
2023-03-08T00:12:00.818Z,976.38
2023-03-08T00:12:11.320Z,976.38
2023-03-08T00:12:21.820Z,976.38
2023-03-08T00:12:32.367Z,976.38
2023-03-08T00:12:43.318Z,976.38
2023-03-08T00:12:53.854Z,976.38
2023-03-08T00:13:04.327Z,976.38
2023-03-08T00:13:14.823Z,976.38
2023-03-08T00:13:25.326Z,976.38
2023-03-08T00:13:35.821Z,976.38
2023-03-08T00:13:46.331Z,976.38
2023-03-08T00:13:56.831Z,976.38
2023-03-08T00:14:07.331Z,976.38
2023-03-08T00:14:17.842Z,976.39
2023-03-08T00:14:28.332Z,976.39
2023-03-08T00:14:38.836Z,976.39
2023-03-08T00:14:49.341Z,976.39
2023-03-08T00:14:59.838Z,976.39
2023-03-08T00:15:10.346Z,976.40
2023-03-08T00:15:20.840Z,976.39
2023-03-08T00:15:31.344Z,976.39
2023-03-08T00:15:41.874Z,976.39
2023-03-08T00:15:52.364Z,976.39
2023-03-08T00:16:02.918Z,976.39
2023-03-08T00:16:13.471Z,976.39
2023-03-08T00:16:23.943Z,976.40
2023-03-08T00:16:34.849Z,976.40
2023-03-08T00:16:45.354Z,976.40
2023-03-08T00:16:56.359Z,976.40
2023-03-08T00:17:06.857Z,976.40
2023-03-08T00:17:17.358Z,976.40
2023-03-08T00:17:27.859Z,976.40
2023-03-08T00:17:38.388Z,976.41
2023-03-08T00:17:48.875Z,976.41
2023-03-08T00:17:59.371Z,976.41
2023-03-08T00:18:09.869Z,976.41
2023-03-08T00:18:20.383Z,976.41
2023-03-08T00:18:30.869Z,976.40
2023-03-08T00:18:41.385Z,976.40
2023-03-08T00:18:52.375Z,976.40
2023-03-08T00:19:02.889Z,976.39
2023-03-08T00:19:13.378Z,976.39
2023-03-08T00:19:23.883Z,976.39
2023-03-08T00:19:34.414Z,976.38
2023-03-08T00:19:45.384Z,976.39
2023-03-08T00:19:55.891Z,976.38
2023-03-08T00:20:06.391Z,976.38
2023-03-08T00:20:16.893Z,976.38
2023-03-08T00:20:27.384Z,976.38
2023-03-08T00:20:37.884Z,976.38
2023-03-08T00:20:48.392Z,976.38
2023-03-08T00:20:58.913Z,976.38
2023-03-08T00:21:09.393Z,976.38
2023-03-08T00:21:20.398Z,976.39
2023-03-08T00:21:31.392Z,976.39
2023-03-08T00:21:41.908Z,976.39
2023-03-08T00:21:52.412Z,976.40
2023-03-08T00:22:02.905Z,976.40
2023-03-08T00:22:13.408Z,976.40
2023-03-08T00:22:24.425Z,976.40
2023-03-08T00:22:34.902Z,976.41
2023-03-08T00:22:45.405Z,976.41
2023-03-08T00:22:55.900Z,976.41
2023-03-08T00:23:06.408Z,976.41
2023-03-08T00:23:17.401Z,976.42
2023-03-08T00:23:27.894Z,976.41
2023-03-08T00:23:38.408Z,976.42
2023-03-08T00:23:49.397Z,976.41
2023-03-08T00:23:59.898Z,976.41
2023-03-08T00:24:10.897Z,976.42
2023-03-08T00:24:21.902Z,976.42
2023-03-08T00:24:32.901Z,976.41
2023-03-08T00:24:43.406Z,976.42
2023-03-08T00:24:53.894Z,976.42
2023-03-08T00:25:04.395Z,976.40
2023-03-08T00:25:15.398Z,976.42
2023-03-08T00:25:26.354Z,976.42
2023-03-08T00:25:36.399Z,976.41
2023-03-08T00:25:47.392Z,976.42
2023-03-08T00:25:57.899Z,976.42
2023-03-08T00:26:08.400Z,976.42
2023-03-08T00:26:18.898Z,976.42
2023-03-08T00:26:29.394Z,976.42
2023-03-08T00:26:39.894Z,976.42
2023-03-08T00:26:50.401Z,976.43
2023-03-08T00:27:00.896Z,976.44
2023-03-08T00:27:11.396Z,976.44
2023-03-08T00:27:21.893Z,976.44
2023-03-08T00:27:32.399Z,976.45
2023-03-08T00:27:43.400Z,976.45
2023-03-08T00:27:53.900Z,976.46
2023-03-08T00:28:04.409Z,976.46
2023-03-08T00:28:14.904Z,976.45
2023-03-08T00:28:25.411Z,976.46
2023-03-08T00:28:35.910Z,976.45
2023-03-08T00:28:46.462Z,976.45
2023-03-08T00:28:56.957Z,976.45
2023-03-08T00:29:07.460Z,976.46
2023-03-08T00:29:17.941Z,976.45
2023-03-08T00:29:28.419Z,976.46
2023-03-08T00:29:38.913Z,976.45
2023-03-08T00:29:49.416Z,976.45
2023-03-08T00:29:59.919Z,976.45
2023-03-08T00:30:10.919Z,976.45
2023-03-08T00:30:21.468Z,976.45
2023-03-08T00:30:31.914Z,976.45
2023-03-08T00:30:42.420Z,976.45
2023-03-08T00:30:52.962Z,976.45
2023-03-08T00:31:03.985Z,976.45
2023-03-08T00:31:14.989Z,976.45
2023-03-08T00:31:25.959Z,976.45
2023-03-08T00:31:36.986Z,976.46
2023-03-08T00:31:47.564Z,976.47
2023-03-08T00:31:58.417Z,976.46
2023-03-08T00:32:09.445Z,976.47
2023-03-08T00:32:20.440Z,976.47
2023-03-08T00:32:30.952Z,976.47
2023-03-08T00:32:41.479Z,976.47
2023-03-08T00:32:52.411Z,976.47
2023-03-08T00:33:02.924Z,976.47
2023-03-08T00:33:13.421Z,976.47
2023-03-08T00:33:23.912Z,976.47
2023-03-08T00:33:34.405Z,976.48
2023-03-08T00:33:45.412Z,976.48
2023-03-08T00:33:55.921Z,976.48
2023-03-08T00:34:06.412Z,976.48
2023-03-08T00:34:16.906Z,976.48
2023-03-08T00:34:27.907Z,976.48
2023-03-08T00:34:38.401Z,976.48
2023-03-08T00:34:48.908Z,976.47
2023-03-08T00:34:59.401Z,976.47
2023-03-08T00:35:10.403Z,976.47
2023-03-08T00:35:20.919Z,976.47
2023-03-08T00:35:31.943Z,976.47
2023-03-08T00:35:42.915Z,976.47
2023-03-08T00:35:53.460Z,976.47
2023-03-08T00:36:03.916Z,976.46
2023-03-08T00:36:14.546Z,976.46
2023-03-08T00:36:24.893Z,976.46
2023-03-08T00:36:35.891Z,976.46
2023-03-08T00:36:46.890Z,976.46
2023-03-08T00:36:57.897Z,976.46
2023-03-08T00:37:08.887Z,976.46
2023-03-08T00:37:19.892Z,976.46
2023-03-08T00:37:30.910Z,976.47
2023-03-08T00:37:41.393Z,976.46
2023-03-08T00:37:52.538Z,976.46
2023-03-08T00:38:03.390Z,976.47
2023-03-08T00:38:13.882Z,976.47
2023-03-08T00:38:24.389Z,976.48
2023-03-08T00:38:35.391Z,976.48
2023-03-08T00:38:45.905Z,976.48
2023-03-08T00:38:56.394Z,976.48
2023-03-08T00:39:06.890Z,976.48
2023-03-08T00:39:17.394Z,976.48
2023-03-08T00:39:28.407Z,976.49
2023-03-08T00:39:39.392Z,976.49
2023-03-08T00:39:49.887Z,976.50
2023-03-08T00:40:00.394Z,976.50
2023-03-08T00:40:10.896Z,976.50
2023-03-08T00:40:21.893Z,976.50
2023-03-08T00:40:32.386Z,976.50
2023-03-08T00:40:43.394Z,976.50
2023-03-08T00:40:53.898Z,976.51
2023-03-08T00:41:04.408Z,976.51
2023-03-08T00:41:15.445Z,976.51
2023-03-08T00:41:26.384Z,976.52
2023-03-08T00:41:36.893Z,976.53
2023-03-08T00:41:47.887Z,976.52
2023-03-08T00:41:58.886Z,976.53
2023-03-08T00:42:09.887Z,976.53
2023-03-08T00:42:20.881Z,976.54
2023-03-08T00:42:31.380Z,976.54
2023-03-08T00:42:42.384Z,976.55
2023-03-08T00:42:52.890Z,976.55
2023-03-08T00:43:03.388Z,976.55
2023-03-08T00:43:14.389Z,976.56
2023-03-08T00:43:25.388Z,976.57
2023-03-08T00:43:35.889Z,976.57
2023-03-08T00:43:46.397Z,976.57
2023-03-08T00:43:57.377Z,976.58
2023-03-08T00:44:07.893Z,976.58
2023-03-08T00:44:18.888Z,976.58
2023-03-08T00:44:29.381Z,976.59
2023-03-08T00:44:40.388Z,976.59
2023-03-08T00:44:51.395Z,976.59
2023-03-08T00:45:02.378Z,976.60
2023-03-08T00:45:13.384Z,976.59
2023-03-08T00:45:24.385Z,976.60
2023-03-08T00:45:35.374Z,976.60
2023-03-08T00:45:46.857Z,976.59
2023-03-08T00:45:56.877Z,976.59
2023-03-08T00:46:07.364Z,976.60
2023-03-08T00:46:18.455Z,976.59
2023-03-08T00:46:28.935Z,976.60
2023-03-08T00:46:39.872Z,976.61
2023-03-08T00:46:50.383Z,976.61
2023-03-08T00:47:00.954Z,976.61
2023-03-08T00:47:11.373Z,976.60
2023-03-08T00:47:22.363Z,976.62
2023-03-08T00:47:32.868Z,976.62
2023-03-08T00:47:43.363Z,976.62
2023-03-08T00:47:53.859Z,976.63
2023-03-08T00:48:04.874Z,976.63
2023-03-08T00:48:15.864Z,976.62
2023-03-08T00:48:26.363Z,976.63
2023-03-08T00:48:36.861Z,976.64
2023-03-08T00:48:47.862Z,976.64
2023-03-08T00:48:58.860Z,976.64
2023-03-08T00:49:09.359Z,976.65
2023-03-08T00:49:20.362Z,976.64
2023-03-08T00:49:30.856Z,976.65
2023-03-08T00:49:41.375Z,976.64
2023-03-08T00:49:51.865Z,976.64
2023-03-08T00:50:02.868Z,976.64
2023-03-08T00:50:13.861Z,976.64
2023-03-08T00:50:24.368Z,976.65
2023-03-08T00:50:35.372Z,976.64
2023-03-08T00:50:45.861Z,976.65
2023-03-08T00:50:56.367Z,976.64
2023-03-08T00:51:06.887Z,976.64
2023-03-08T00:51:17.377Z,976.64
2023-03-08T00:51:27.874Z,976.64
2023-03-08T00:51:38.871Z,976.63
2023-03-08T00:51:49.365Z,976.63
2023-03-08T00:51:59.866Z,976.63
2023-03-08T00:52:10.370Z,976.64
2023-03-08T00:52:20.879Z,976.64
2023-03-08T00:52:31.367Z,976.63
2023-03-08T00:52:41.899Z,976.63
2023-03-08T00:52:52.395Z,976.63
2023-03-08T00:53:02.879Z,976.63
2023-03-08T00:53:13.395Z,976.63
2023-03-08T00:53:23.877Z,976.62
2023-03-08T00:53:34.380Z,976.62
2023-03-08T00:53:44.886Z,976.62
2023-03-08T00:53:55.893Z,976.62
2023-03-08T00:54:06.392Z,976.61
2023-03-08T00:54:16.883Z,976.62
2023-03-08T00:54:27.383Z,976.62
2023-03-08T00:54:37.896Z,976.62
2023-03-08T00:54:48.394Z,976.62
2023-03-08T00:54:58.897Z,976.62
2023-03-08T00:55:09.399Z,976.62
2023-03-08T00:55:19.899Z,976.62
2023-03-08T00:55:30.902Z,976.61
2023-03-08T00:55:41.398Z,976.61
2023-03-08T00:55:51.896Z,976.61
2023-03-08T00:56:02.418Z,976.61
2023-03-08T00:56:13.442Z,976.60
2023-03-08T00:56:24.402Z,976.60
2023-03-08T00:56:34.899Z,976.60
2023-03-08T00:56:45.434Z,976.60
2023-03-08T00:56:55.898Z,976.60
2023-03-08T00:57:06.423Z,976.59
2023-03-08T00:57:16.904Z,976.59
2023-03-08T00:57:27.414Z,976.58
2023-03-08T00:57:37.907Z,976.58
2023-03-08T00:57:48.410Z,976.57
2023-03-08T00:57:59.409Z,976.56
2023-03-08T00:58:10.410Z,976.56
2023-03-08T00:58:20.908Z,976.56
2023-03-08T00:58:31.910Z,976.55
2023-03-08T00:58:42.465Z,976.55
2023-03-08T00:58:52.920Z,976.54
2023-03-08T00:59:03.420Z,976.54
2023-03-08T00:59:14.433Z,976.53
2023-03-08T00:59:24.920Z,976.53
2023-03-08T00:59:35.436Z,976.53
2023-03-08T00:59:45.928Z,976.53
2023-03-08T00:59:56.440Z,976.54
2023-03-08T01:00:06.929Z,976.54
2023-03-08T01:00:17.431Z,976.54
2023-03-08T01:00:27.930Z,976.54
2023-03-08T01:00:38.496Z,976.55
2023-03-08T01:00:48.994Z,976.55
2023-03-08T01:00:59.522Z,976.56
2023-03-08T01:01:10.027Z,976.56
2023-03-08T01:01:20.557Z,976.55
2023-03-08T01:01:31.435Z,976.56
2023-03-08T01:01:41.939Z,976.56
2023-03-08T01:01:52.942Z,976.55
2023-03-08T01:02:03.942Z,976.55
2023-03-08T01:02:14.931Z,976.56
2023-03-08T01:02:25.437Z,976.56
2023-03-08T01:02:35.951Z,976.56
2023-03-08T01:02:46.938Z,976.56
2023-03-08T01:02:57.940Z,976.56
2023-03-08T01:03:08.438Z,976.56
2023-03-08T01:03:19.448Z,976.56
2023-03-08T01:03:30.473Z,976.56
2023-03-08T01:03:41.441Z,976.56
2023-03-08T01:03:51.975Z,976.56
2023-03-08T01:04:02.502Z,976.55
2023-03-08T01:04:13.468Z,976.55
2023-03-08T01:04:24.439Z,976.55
2023-03-08T01:04:35.427Z,976.54
2023-03-08T01:04:45.928Z,976.54
2023-03-08T01:04:56.936Z,976.54
2023-03-08T01:05:07.433Z,976.53
2023-03-08T01:05:18.436Z,976.53
2023-03-08T01:05:28.929Z,976.54
2023-03-08T01:05:39.933Z,976.53
2023-03-08T01:05:50.446Z,976.53
2023-03-08T01:06:01.434Z,976.53
2023-03-08T01:06:11.925Z,976.53
2023-03-08T01:06:22.435Z,976.53
2023-03-08T01:06:33.430Z,976.53
2023-03-08T01:06:43.947Z,976.53
2023-03-08T01:06:54.930Z,976.53
2023-03-08T01:07:05.426Z,976.53
2023-03-08T01:07:16.435Z,976.52
2023-03-08T01:07:26.924Z,976.52
2023-03-08T01:07:37.424Z,976.52
2023-03-08T01:07:47.958Z,976.51
2023-03-08T01:07:58.424Z,976.51
2023-03-08T01:08:08.927Z,976.51
2023-03-08T01:08:19.476Z,976.51
2023-03-08T01:08:29.921Z,976.51
2023-03-08T01:08:40.931Z,976.51
2023-03-08T01:08:51.430Z,976.50
2023-03-08T01:09:01.919Z,976.50
2023-03-08T01:09:12.428Z,976.50
2023-03-08T01:09:22.915Z,976.50
2023-03-08T01:09:33.922Z,976.49
2023-03-08T01:09:44.940Z,976.48
2023-03-08T01:09:55.419Z,976.49
2023-03-08T01:10:05.924Z,976.47
2023-03-08T01:10:16.440Z,976.47
2023-03-08T01:10:26.927Z,976.47
2023-03-08T01:10:37.425Z,976.47
2023-03-08T01:10:48.426Z,976.47
2023-03-08T01:10:58.965Z,976.47
2023-03-08T01:11:09.421Z,976.46
2023-03-08T01:11:19.932Z,976.47
2023-03-08T01:11:30.428Z,976.47
2023-03-08T01:11:40.925Z,976.47
2023-03-08T01:11:51.927Z,976.46
2023-03-08T01:12:02.936Z,976.47
2023-03-08T01:12:13.436Z,976.46
2023-03-08T01:12:23.928Z,976.46
2023-03-08T01:12:34.445Z,976.46
2023-03-08T01:12:45.459Z,976.46
2023-03-08T01:12:55.936Z,976.46
2023-03-08T01:13:06.446Z,976.45
2023-03-08T01:13:16.944Z,976.45
2023-03-08T01:13:27.980Z,976.45
2023-03-08T01:13:38.948Z,976.45
2023-03-08T01:13:49.469Z,976.45
2023-03-08T01:13:59.946Z,976.44
2023-03-08T01:14:10.481Z,976.44
2023-03-08T01:14:20.949Z,976.44
2023-03-08T01:14:31.449Z,976.44
2023-03-08T01:14:41.953Z,976.44
2023-03-08T01:14:52.462Z,976.44
2023-03-08T01:15:02.963Z,976.44
2023-03-08T01:15:13.456Z,976.43
2023-03-08T01:15:23.961Z,976.44
2023-03-08T01:15:34.504Z,976.43
2023-03-08T01:15:44.963Z,976.43
2023-03-08T01:15:55.469Z,976.44
2023-03-08T01:16:05.952Z,976.44
2023-03-08T01:16:16.461Z,976.44
2023-03-08T01:16:26.957Z,976.43
2023-03-08T01:16:37.462Z,976.44
2023-03-08T01:16:47.987Z,976.44
2023-03-08T01:16:58.469Z,976.44
2023-03-08T01:17:08.967Z,976.44
2023-03-08T01:17:19.482Z,976.44
2023-03-08T01:17:29.963Z,976.44
2023-03-08T01:17:40.470Z,976.44
2023-03-08T01:17:50.974Z,976.44
2023-03-08T01:18:01.976Z,976.44
2023-03-08T01:18:12.489Z,976.44
2023-03-08T01:18:23.478Z,976.44
2023-03-08T01:18:34.010Z,976.44
2023-03-08T01:18:44.476Z,976.44
2023-03-08T01:18:54.979Z,976.44
2023-03-08T01:19:05.482Z,976.44
2023-03-08T01:19:16.008Z,976.45
2023-03-08T01:19:26.489Z,976.44
2023-03-08T01:19:36.984Z,976.44
2023-03-08T01:19:47.484Z,976.43
2023-03-08T01:19:58.497Z,976.44
2023-03-08T01:20:09.494Z,976.42
2023-03-08T01:20:20.488Z,976.42
2023-03-08T01:20:31.512Z,976.42
2023-03-08T01:20:42.492Z,976.42
2023-03-08T01:20:53.497Z,976.43
2023-03-08T01:21:04.027Z,976.43
2023-03-08T01:21:14.497Z,976.43
2023-03-08T01:21:24.997Z,976.42
2023-03-08T01:21:35.499Z,976.41
2023-03-08T01:21:46.490Z,976.41
2023-03-08T01:21:56.993Z,976.41
2023-03-08T01:22:07.496Z,976.40
2023-03-08T01:22:18.514Z,976.40
2023-03-08T01:22:29.000Z,976.40
2023-03-08T01:22:39.504Z,976.40
2023-03-08T01:22:50.018Z,976.40
2023-03-08T01:23:00.529Z,976.40
2023-03-08T01:23:10.996Z,976.40
2023-03-08T01:23:21.501Z,976.40
2023-03-08T01:23:32.028Z,976.39
2023-03-08T01:23:42.720Z,976.39
2023-03-08T01:23:53.506Z,976.39
2023-03-08T01:24:04.512Z,976.39
2023-03-08T01:24:15.007Z,976.39
2023-03-08T01:24:26.009Z,976.40
2023-03-08T01:24:37.014Z,976.40
2023-03-08T01:24:47.507Z,976.40
2023-03-08T01:24:57.998Z,976.40
2023-03-08T01:25:09.002Z,976.41
2023-03-08T01:25:19.511Z,976.41
2023-03-08T01:25:30.006Z,976.41
2023-03-08T01:25:41.009Z,976.42
2023-03-08T01:25:52.003Z,976.42
2023-03-08T01:26:03.026Z,976.42
2023-03-08T01:26:13.534Z,976.42
2023-03-08T01:26:24.513Z,976.42
2023-03-08T01:26:35.510Z,976.43
2023-03-08T01:26:46.003Z,976.43
2023-03-08T01:26:56.508Z,976.43
2023-03-08T01:27:07.010Z,976.43
2023-03-08T01:27:17.510Z,976.44
2023-03-08T01:27:28.017Z,976.44
2023-03-08T01:27:39.009Z,976.44
2023-03-08T01:27:49.514Z,976.45
2023-03-08T01:28:00.509Z,976.45
2023-03-08T01:28:11.011Z,976.45
2023-03-08T01:28:22.004Z,976.45
2023-03-08T01:28:32.547Z,976.45
2023-03-08T01:28:43.517Z,976.45
2023-03-08T01:28:54.002Z,976.46
2023-03-08T01:29:04.507Z,976.46
2023-03-08T01:29:15.002Z,976.46
2023-03-08T01:29:26.011Z,976.46
2023-03-08T01:29:36.510Z,976.46
2023-03-08T01:29:46.994Z,976.45
2023-03-08T01:29:57.496Z,976.45
2023-03-08T01:30:08.497Z,976.46
2023-03-08T01:30:19.001Z,976.46
2023-03-08T01:30:29.498Z,976.46
2023-03-08T01:30:40.006Z,976.45
2023-03-08T01:30:50.496Z,976.45
2023-03-08T01:31:00.993Z,976.44
2023-03-08T01:31:11.538Z,976.44
2023-03-08T01:31:22.492Z,976.44
2023-03-08T01:31:33.005Z,976.44
2023-03-08T01:31:43.495Z,976.43
2023-03-08T01:31:54.485Z,976.43
2023-03-08T01:32:05.539Z,976.43
2023-03-08T01:32:16.014Z,976.42
2023-03-08T01:32:26.666Z,976.42
2023-03-08T01:32:37.493Z,976.42
2023-03-08T01:32:48.487Z,976.42
2023-03-08T01:32:58.975Z,976.42
2023-03-08T01:33:09.513Z,976.41
2023-03-08T01:33:20.466Z,976.42
2023-03-08T01:33:30.967Z,976.42
2023-03-08T01:33:41.969Z,976.42
2023-03-08T01:33:52.972Z,976.42
2023-03-08T01:34:03.984Z,976.43
2023-03-08T01:34:14.956Z,976.44
2023-03-08T01:34:25.471Z,976.44
2023-03-08T01:34:35.956Z,976.45
2023-03-08T01:34:46.459Z,976.45
2023-03-08T01:34:57.452Z,976.45
2023-03-08T01:35:07.958Z,976.45
2023-03-08T01:35:18.457Z,976.46
2023-03-08T01:35:29.454Z,976.46
2023-03-08T01:35:39.969Z,976.46
2023-03-08T01:35:50.502Z,976.46
2023-03-08T01:36:01.040Z,976.46
2023-03-08T01:36:11.948Z,976.47
2023-03-08T01:36:22.448Z,976.46
2023-03-08T01:36:32.963Z,976.47
2023-03-08T01:36:43.937Z,976.46
2023-03-08T01:36:54.445Z,976.47
2023-03-08T01:37:05.446Z,976.46
2023-03-08T01:37:15.945Z,976.46
2023-03-08T01:37:26.441Z,976.46
2023-03-08T01:37:36.956Z,976.46
2023-03-08T01:37:47.458Z,976.45
2023-03-08T01:37:58.443Z,976.44
2023-03-08T01:38:08.968Z,976.44
2023-03-08T01:38:19.451Z,976.44
2023-03-08T01:38:30.451Z,976.44
2023-03-08T01:38:41.484Z,976.45
2023-03-08T01:38:51.955Z,976.45
2023-03-08T01:39:02.952Z,976.43
2023-03-08T01:39:13.445Z,976.44
2023-03-08T01:39:23.944Z,976.44
2023-03-08T01:39:34.461Z,976.44
2023-03-08T01:39:44.936Z,976.44
2023-03-08T01:39:55.447Z,976.44
2023-03-08T01:40:05.958Z,976.44
2023-03-08T01:40:16.490Z,976.44
2023-03-08T01:40:27.447Z,976.43
2023-03-08T01:40:37.958Z,976.43
2023-03-08T01:40:48.461Z,976.43
2023-03-08T01:40:59.452Z,976.42
2023-03-08T01:41:10.442Z,976.42
2023-03-08T01:41:20.956Z,976.42
2023-03-08T01:41:31.455Z,976.42
2023-03-08T01:41:41.944Z,976.42
2023-03-08T01:41:52.448Z,976.41
2023-03-08T01:42:02.947Z,976.42
2023-03-08T01:42:13.450Z,976.41
2023-03-08T01:42:23.951Z,976.40
2023-03-08T01:42:34.452Z,976.40
2023-03-08T01:42:45.457Z,976.40
2023-03-08T01:42:56.452Z,976.40
2023-03-08T01:43:07.453Z,976.40
2023-03-08T01:43:17.945Z,976.39
2023-03-08T01:43:28.494Z,976.40
2023-03-08T01:43:39.457Z,976.40
2023-03-08T01:43:50.012Z,976.41
2023-03-08T01:44:00.461Z,976.41
2023-03-08T01:44:10.952Z,976.41
2023-03-08T01:44:21.457Z,976.42
2023-03-08T01:44:32.455Z,976.41
2023-03-08T01:44:43.451Z,976.41
2023-03-08T01:44:53.963Z,976.41
2023-03-08T01:45:04.965Z,976.42
2023-03-08T01:45:15.460Z,976.43
2023-03-08T01:45:26.469Z,976.43
2023-03-08T01:45:36.954Z,976.43
2023-03-08T01:45:47.982Z,976.44
2023-03-08T01:45:58.453Z,976.45
2023-03-08T01:46:08.967Z,976.44
2023-03-08T01:46:19.460Z,976.43
2023-03-08T01:46:29.981Z,976.43
2023-03-08T01:46:40.961Z,976.44
2023-03-08T01:46:51.465Z,976.44
2023-03-08T01:47:02.463Z,976.44
2023-03-08T01:47:12.958Z,976.44
2023-03-08T01:47:23.471Z,976.45
2023-03-08T01:47:34.459Z,976.42
2023-03-08T01:47:45.466Z,976.40
2023-03-08T01:47:56.468Z,976.42
2023-03-08T01:48:06.962Z,976.42
2023-03-08T01:48:17.481Z,976.43
2023-03-08T01:48:34.852Z,976.43
2023-03-08T01:48:38.468Z,976.43
2023-03-08T01:48:49.463Z,976.42
2023-03-08T01:48:59.961Z,976.43
2023-03-08T01:49:10.471Z,976.43
2023-03-08T01:49:20.963Z,976.42
2023-03-08T01:49:31.962Z,976.42
2023-03-08T01:49:42.471Z,976.41
2023-03-08T01:49:53.464Z,976.41
2023-03-08T01:50:03.970Z,976.40
2023-03-08T01:50:14.464Z,976.41
2023-03-08T01:50:24.962Z,976.40
2023-03-08T01:50:35.524Z,976.40
2023-03-08T01:50:45.966Z,976.39
2023-03-08T01:50:56.967Z,976.39
2023-03-08T01:51:07.490Z,976.39
2023-03-08T01:51:18.465Z,976.39
2023-03-08T01:51:29.472Z,976.38
2023-03-08T01:51:40.495Z,976.38
2023-03-08T01:51:50.961Z,976.39
2023-03-08T01:52:01.470Z,976.39
2023-03-08T01:52:12.470Z,976.40
2023-03-08T01:52:22.965Z,976.40
2023-03-08T01:52:33.469Z,976.36
2023-03-08T01:52:44.466Z,976.38
2023-03-08T01:52:54.965Z,976.37
2023-03-08T01:53:05.970Z,976.37
2023-03-08T01:53:16.980Z,976.36
2023-03-08T01:53:27.463Z,976.37
2023-03-08T01:53:38.459Z,976.37
2023-03-08T01:54:24.375Z,976.36
2023-03-08T01:54:24.741Z,976.36
2023-03-08T01:54:35.529Z,976.36
2023-03-08T01:55:06.973Z,976.36
2023-03-08T01:55:07.338Z,976.33
2023-03-08T01:55:17.965Z,976.35
2023-03-08T01:55:28.957Z,976.36
2023-03-08T01:55:39.960Z,976.36
2023-03-08T01:55:50.457Z,976.36
2023-03-08T01:56:00.956Z,976.35
2023-03-08T01:56:11.451Z,976.36
2023-03-08T01:56:21.947Z,976.36
2023-03-08T01:56:32.451Z,976.36
2023-03-08T01:56:42.947Z,976.36
2023-03-08T01:56:53.449Z,976.37
2023-03-08T01:57:03.957Z,976.37
2023-03-08T01:57:14.452Z,976.37
2023-03-08T01:57:25.450Z,976.37
2023-03-08T01:57:36.446Z,976.36
2023-03-08T01:57:47.453Z,976.37
2023-03-08T01:57:58.481Z,976.36
2023-03-08T01:58:08.951Z,976.37
2023-03-08T01:58:19.456Z,976.37
2023-03-08T01:58:29.945Z,976.37
2023-03-08T01:58:40.955Z,976.37
2023-03-08T01:58:51.445Z,976.37
2023-03-08T01:59:01.943Z,976.36
2023-03-08T01:59:12.492Z,976.36
2023-03-08T01:59:22.960Z,976.35
2023-03-08T01:59:33.458Z,976.35
2023-03-08T01:59:44.485Z,976.35
2023-03-08T01:59:55.453Z,976.34
2023-03-08T02:00:06.458Z,976.33
2023-03-08T02:00:16.951Z,976.33
2023-03-08T02:00:29.685Z,976.32
2023-03-08T02:00:38.458Z,976.32
2023-03-08T02:00:49.042Z,976.31
2023-03-08T02:00:59.489Z,976.31
2023-03-08T02:01:10.475Z,976.31
2023-03-08T02:01:20.990Z,976.31
2023-03-08T02:01:31.968Z,976.30
2023-03-08T02:01:42.456Z,976.31
2023-03-08T02:01:52.981Z,976.30
2023-03-08T02:02:03.450Z,976.31
2023-03-08T02:02:13.953Z,976.30
2023-03-08T02:02:25.227Z,976.31
2023-03-08T02:02:34.969Z,976.30
2023-03-08T02:02:45.462Z,976.31
2023-03-08T02:02:56.471Z,976.32
2023-03-08T02:03:07.462Z,976.32
2023-03-08T02:03:17.947Z,976.32
2023-03-08T02:03:28.455Z,976.32
2023-03-08T02:03:39.464Z,976.33
2023-03-08T02:03:49.951Z,976.33
2023-03-08T02:04:00.951Z,976.32
2023-03-08T02:04:11.469Z,976.32
2023-03-08T02:04:22.453Z,976.33
2023-03-08T02:04:33.451Z,976.33
2023-03-08T02:04:44.461Z,976.32
2023-03-08T02:04:55.535Z,976.33
2023-03-08T02:05:05.960Z,976.32
2023-03-08T02:05:16.450Z,976.33
2023-03-08T02:05:26.968Z,976.32
2023-03-08T02:05:37.467Z,976.31
2023-03-08T02:05:48.451Z,976.31
2023-03-08T02:05:59.446Z,976.31
2023-03-08T02:06:10.475Z,976.30
2023-03-08T02:06:20.950Z,976.29
2023-03-08T02:06:31.448Z,976.29
2023-03-08T02:06:42.457Z,976.28
2023-03-08T02:06:52.952Z,976.27
2023-03-08T02:07:03.947Z,976.28
2023-03-08T02:07:14.947Z,976.27
2023-03-08T02:07:25.967Z,976.26
2023-03-08T02:07:36.977Z,976.26
2023-03-08T02:07:47.969Z,976.25
2023-03-08T02:07:58.953Z,976.25
2023-03-08T02:08:09.455Z,976.24
2023-03-08T02:08:19.981Z,976.23
2023-03-08T02:08:30.453Z,976.23
2023-03-08T02:08:41.447Z,976.22
2023-03-08T02:08:51.945Z,976.22
2023-03-08T02:09:02.458Z,976.22
2023-03-08T02:09:13.455Z,976.21
2023-03-08T02:09:24.458Z,976.22
2023-03-08T02:09:35.476Z,976.20
2023-03-08T02:09:45.953Z,976.19
2023-03-08T02:09:56.950Z,976.20
2023-03-08T02:10:07.474Z,976.18
2023-03-08T02:10:17.950Z,976.18
2023-03-08T02:10:28.456Z,976.18
2023-03-08T02:10:38.958Z,976.18
2023-03-08T02:10:49.463Z,976.17
2023-03-08T02:10:59.959Z,976.17
2023-03-08T02:11:10.455Z,976.14
2023-03-08T02:11:20.959Z,976.14
2023-03-08T02:11:31.958Z,976.14
2023-03-08T02:11:42.968Z,976.14
2023-03-08T02:11:53.986Z,976.14
2023-03-08T02:12:04.469Z,976.14
2023-03-08T02:12:14.973Z,976.13
2023-03-08T02:12:25.464Z,976.13
2023-03-08T02:12:36.468Z,976.13
2023-03-08T02:12:47.496Z,976.12
2023-03-08T02:12:57.976Z,976.13
2023-03-08T02:13:08.474Z,976.13
2023-03-08T02:13:18.969Z,976.13
2023-03-08T02:13:29.474Z,976.12
2023-03-08T02:13:39.981Z,976.13